createdAt,value
2022-08-08T00:00:53.015Z,48.75
2022-08-08T00:03:20.153Z,48.70
2022-08-08T00:06:02.726Z,49.84
2022-08-08T00:08:48.862Z,49.70
2022-08-08T00:11:26.386Z,48.69
2022-08-08T00:14:58.968Z,50.42
2022-08-08T00:17:24.221Z,49.24
2022-08-08T00:20:01.465Z,49.85
2022-08-08T00:22:39.771Z,49.76
2022-08-08T00:25:14.777Z,52.28
2022-08-08T00:27:44.652Z,57.81
2022-08-08T00:30:15.787Z,55.38
2022-08-08T00:32:52.986Z,57.21
2022-08-08T00:35:37.586Z,55.74
2022-08-08T00:38:44.312Z,55.77
2022-08-08T00:42:09.020Z,56.33
2022-08-08T00:45:21.517Z,54.26
2022-08-08T00:48:43.514Z,52.63
2022-08-08T00:52:19.730Z,51.91
2022-08-08T00:55:53.380Z,53.21
2022-08-08T00:58:54.398Z,53.34
2022-08-08T01:01:38.134Z,53.05
2022-08-08T01:04:44.800Z,54.92
2022-08-08T01:08:12.746Z,55.43
2022-08-08T01:11:36.320Z,55.88
2022-08-08T01:15:12.277Z,55.29
2022-08-08T01:19:13.915Z,52.60
2022-08-08T01:22:40.648Z,52.90
2022-08-08T01:26:13.775Z,58.79
2022-08-08T01:29:35.572Z,54.78
2022-08-08T01:33:33.615Z,56.40
2022-08-08T01:37:05.972Z,52.36
2022-08-08T01:39:55.271Z,55.11
2022-08-08T01:42:37.745Z,53.20
2022-08-08T01:45:33.958Z,56.59
2022-08-08T01:48:31.475Z,59.88
2022-08-08T01:51:32.250Z,55.96
2022-08-08T01:55:26.746Z,56.31
2022-08-08T01:57:33.963Z,55.33
2022-08-08T02:00:27.955Z,56.36
2022-08-08T02:03:54.508Z,54.97
2022-08-08T02:06:43.523Z,55.23
2022-08-08T02:10:02.478Z,54.58
2022-08-08T02:12:24.427Z,55.67
2022-08-08T02:15:03.053Z,53.91
2022-08-08T02:17:43.360Z,54.41
2022-08-08T02:21:02.273Z,54.13
2022-08-08T02:23:23.210Z,57.77
2022-08-08T02:26:09.990Z,56.58
2022-08-08T02:28:54.908Z,54.88
2022-08-08T02:31:54.084Z,54.52
2022-08-08T02:35:11.900Z,53.69
2022-08-08T02:38:25.495Z,54.60
2022-08-08T02:41:59.157Z,53.71
2022-08-08T02:45:09.645Z,53.44
2022-08-08T02:48:28.051Z,54.31
2022-08-08T02:51:55.606Z,54.37
2022-08-08T02:54:59.296Z,54.92
2022-08-08T02:58:06.850Z,55.90
2022-08-08T03:01:23.052Z,56.93
2022-08-08T03:05:10.732Z,54.91
2022-08-08T03:08:34.046Z,54.01
2022-08-08T03:12:05.780Z,54.09
2022-08-08T03:15:58.741Z,53.93
2022-08-08T03:18:04.761Z,53.70
2022-08-08T03:20:47.062Z,53.75
2022-08-08T03:23:21.710Z,54.79
2022-08-08T03:25:54.985Z,54.35
2022-08-08T03:28:33.046Z,54.08
2022-08-08T03:31:24.736Z,56.14
2022-08-08T03:33:58.837Z,54.94
2022-08-08T03:36:31.131Z,56.78
2022-08-08T03:39:07.513Z,55.57
2022-08-08T03:42:26.668Z,56.81
2022-08-08T03:44:34.987Z,55.74
2022-08-08T03:47:17.594Z,56.14
2022-08-08T03:50:00.588Z,57.04
2022-08-08T03:52:33.875Z,55.53
2022-08-08T03:55:54.943Z,55.26
2022-08-08T03:58:35.298Z,54.88
2022-08-08T04:01:01.866Z,54.65
2022-08-08T04:03:59.917Z,55.13
2022-08-08T04:06:30.774Z,57.15
2022-08-08T04:09:10.777Z,56.31
2022-08-08T04:11:48.539Z,58.28
2022-08-08T04:14:34.894Z,60.42
2022-08-08T04:17:06.873Z,57.82
2022-08-08T04:19:44.030Z,58.38
2022-08-08T04:22:13.686Z,56.69
2022-08-08T04:24:50.114Z,57.21
2022-08-08T04:28:03.646Z,58.71
2022-08-08T04:30:18.243Z,56.99
2022-08-08T04:32:50.403Z,56.35
2022-08-08T04:35:20.357Z,55.64
2022-08-08T04:37:51.687Z,58.65
2022-08-08T04:40:24.277Z,57.27
2022-08-08T04:42:58.012Z,57.65
2022-08-08T04:45:29.894Z,57.03
2022-08-08T04:48:00.439Z,57.64
2022-08-08T04:50:34.198Z,58.23
2022-08-08T04:53:52.182Z,59.37
2022-08-08T04:55:56.322Z,63.07
2022-08-08T04:58:26.616Z,60.12
2022-08-08T05:00:55.315Z,57.66
2022-08-08T05:04:08.326Z,54.01
2022-08-08T05:06:25.806Z,55.26
2022-08-08T05:09:02.287Z,52.81
2022-08-08T05:11:38.851Z,49.57
2022-08-08T05:14:12.246Z,51.45
2022-08-08T05:16:51.795Z,47.68
2022-08-08T05:20:09.243Z,45.67
2022-08-08T05:22:13.051Z,44.06
2022-08-08T05:24:48.628Z,45.82
2022-08-08T05:27:17.738Z,46.51
2022-08-08T05:29:51.951Z,48.66
2022-08-08T05:32:27.147Z,51.33
2022-08-08T05:35:04.420Z,55.05
2022-08-08T05:37:53.158Z,52.31
2022-08-08T05:40:28.800Z,50.45
2022-08-08T05:43:38.701Z,50.87
2022-08-08T05:46:03.418Z,48.04
2022-08-08T05:48:34.739Z,50.32
2022-08-08T05:51:14.708Z,53.15
2022-08-08T05:54:26.013Z,49.31
2022-08-08T05:56:42.179Z,57.01
2022-08-08T05:59:59.465Z,54.94
2022-08-08T06:02:43.870Z,53.74
2022-08-08T06:05:34.627Z,50.20
2022-08-08T06:08:10.506Z,54.59
2022-08-08T06:10:56.890Z,52.22
2022-08-08T06:13:35.881Z,54.93
2022-08-08T06:16:13.313Z,52.48
2022-08-08T06:18:43.722Z,54.31
2022-08-08T06:21:32.520Z,58.20
2022-08-08T06:24:02.142Z,56.20
2022-08-08T06:26:44.327Z,53.12
2022-08-08T06:29:56.415Z,52.50
2022-08-08T06:32:18.584Z,55.47
2022-08-08T06:35:12.287Z,55.18
2022-08-08T06:37:50.794Z,57.95
2022-08-08T06:40:21.560Z,57.75
2022-08-08T06:42:57.582Z,55.62
2022-08-08T06:45:26.110Z,55.86
2022-08-08T06:48:01.189Z,54.24
2022-08-08T06:50:38.549Z,51.26
2022-08-08T06:53:17.183Z,56.56
2022-08-08T06:56:00.843Z,49.10
2022-08-08T06:58:33.228Z,50.18
2022-08-08T07:01:24.255Z,51.04
2022-08-08T07:04:40.301Z,49.64
2022-08-08T07:06:51.538Z,48.30
2022-08-08T07:09:22.041Z,44.60
2022-08-08T07:11:59.453Z,46.55
2022-08-08T07:14:36.361Z,47.02
2022-08-08T07:17:09.535Z,47.10
2022-08-08T07:19:53.650Z,48.33
2022-08-08T07:22:39.948Z,45.09
2022-08-08T07:25:10.978Z,46.46
2022-08-08T07:28:01.967Z,45.45
2022-08-08T07:30:31.893Z,47.28
2022-08-08T07:33:02.135Z,47.38
2022-08-08T07:35:31.244Z,47.03
2022-08-08T07:38:10.166Z,47.50
2022-08-08T07:40:40.113Z,47.95
2022-08-08T07:43:09.806Z,46.70
2022-08-08T07:46:04.838Z,43.96
2022-08-08T07:48:29.653Z,46.44
2022-08-08T07:51:01.213Z,46.49
2022-08-08T07:54:01.358Z,46.42
2022-08-08T07:56:35.677Z,43.68
2022-08-08T07:59:11.115Z,44.64
2022-08-08T08:02:33.339Z,41.43
2022-08-08T08:04:49.356Z,44.20
2022-08-08T08:07:32.375Z,43.36
2022-08-08T08:10:13.076Z,43.94
2022-08-08T08:12:46.264Z,42.90
2022-08-08T08:15:21.733Z,41.20
2022-08-08T08:17:55.913Z,42.86
2022-08-08T08:20:29.721Z,44.22
2022-08-08T08:22:58.808Z,43.96
2022-08-08T08:25:40.808Z,43.89
2022-08-08T08:28:21.331Z,42.58
2022-08-08T08:30:53.552Z,42.58
2022-08-08T08:33:22.402Z,42.64
2022-08-08T08:36:19.100Z,41.39
2022-08-08T08:38:50.051Z,39.95
2022-08-08T08:41:22.162Z,41.38
2022-08-08T08:43:52.822Z,40.33
2022-08-08T08:46:45.409Z,39.93
2022-08-08T08:49:16.677Z,42.87
2022-08-08T08:51:51.504Z,40.25
2022-08-08T08:54:25.618Z,41.50
2022-08-08T08:56:57.135Z,41.56
2022-08-08T08:59:59.612Z,42.16
2022-08-08T09:02:24.160Z,40.57
2022-08-08T09:04:58.931Z,40.35
2022-08-08T09:07:39.515Z,40.87
2022-08-08T09:10:18.870Z,40.61
2022-08-08T09:12:52.177Z,40.01
2022-08-08T09:15:37.169Z,41.42
2022-08-08T09:18:09.700Z,39.77
2022-08-08T09:21:59.244Z,39.01
2022-08-08T09:23:33.472Z,38.04
2022-08-08T09:26:21.399Z,37.71
2022-08-08T09:28:51.724Z,37.94
2022-08-08T09:31:42.303Z,38.28
2022-08-08T09:34:32.562Z,35.34
2022-08-08T09:37:58.357Z,36.79
2022-08-08T09:40:03.857Z,37.47
2022-08-08T09:42:44.201Z,38.49
2022-08-08T09:45:55.246Z,39.35
2022-08-08T09:48:21.567Z,38.07
2022-08-08T09:50:56.158Z,35.77
2022-08-08T09:53:59.029Z,37.90
2022-08-08T09:56:25.253Z,37.89
2022-08-08T09:59:11.157Z,38.40
2022-08-08T10:01:59.000Z,37.09
2022-08-08T10:04:42.235Z,38.52
2022-08-08T10:07:17.646Z,38.81
2022-08-08T10:09:59.557Z,36.79
2022-08-08T10:12:53.238Z,37.08
2022-08-08T10:15:25.240Z,38.66
2022-08-08T10:18:10.152Z,35.54
2022-08-08T10:20:58.268Z,35.37
2022-08-08T10:23:47.127Z,37.76
2022-08-08T10:26:29.755Z,36.05
2022-08-08T10:29:07.055Z,37.45
2022-08-08T10:31:55.235Z,36.64
2022-08-08T10:34:27.456Z,37.02
2022-08-08T10:36:59.682Z,36.75
2022-08-08T10:39:31.737Z,34.88
2022-08-08T10:42:16.326Z,35.15
2022-08-08T10:44:46.037Z,35.01
2022-08-08T10:47:20.988Z,36.44
2022-08-08T10:50:02.334Z,36.93
2022-08-08T10:52:35.091Z,38.24
2022-08-08T10:55:06.654Z,37.53
2022-08-08T10:57:50.013Z,37.72
2022-08-08T11:00:27.265Z,38.50
2022-08-08T11:02:56.595Z,35.33
2022-08-08T11:05:39.004Z,36.86
2022-08-08T11:08:30.954Z,35.12
2022-08-08T11:11:08.243Z,35.04
2022-08-08T11:14:00.047Z,34.77
2022-08-08T11:16:34.544Z,36.29
2022-08-08T11:19:05.582Z,37.16
2022-08-08T11:21:55.484Z,37.25
2022-08-08T11:24:29.106Z,38.41
2022-08-08T11:27:10.612Z,38.69
2022-08-08T11:29:58.328Z,38.03
2022-08-08T11:32:41.762Z,36.95
2022-08-08T11:35:27.844Z,38.87
2022-08-08T11:38:35.662Z,40.40
2022-08-08T11:40:53.156Z,39.98
2022-08-08T11:43:24.920Z,39.23
2022-08-08T11:46:10.015Z,39.69
2022-08-08T11:48:47.209Z,39.14
2022-08-08T11:51:30.326Z,39.64
2022-08-08T11:54:09.710Z,39.93
2022-08-08T11:57:14.490Z,38.53
2022-08-08T12:00:00.614Z,40.49
2022-08-08T12:02:34.174Z,39.47
2022-08-08T12:05:08.253Z,40.38
2022-08-08T12:07:51.559Z,40.64
2022-08-08T12:10:24.664Z,40.39
2022-08-08T12:13:05.111Z,39.20
2022-08-08T12:15:42.246Z,39.88
2022-08-08T12:18:17.979Z,40.42
2022-08-08T12:20:50.094Z,40.39
2022-08-08T12:23:43.130Z,40.26
2022-08-08T12:26:28.105Z,40.56
2022-08-08T12:29:40.991Z,39.07
2022-08-08T12:32:17.034Z,39.44
2022-08-08T12:35:13.226Z,39.78
2022-08-08T12:37:48.182Z,38.21
2022-08-08T12:40:54.800Z,38.97
2022-08-08T12:43:43.769Z,39.18
2022-08-08T12:46:24.843Z,37.50
2022-08-08T12:51:58.616Z,40.35
2022-08-08T12:54:35.703Z,39.75
2022-08-08T12:57:17.240Z,37.86
2022-08-08T13:00:04.748Z,37.91
2022-08-08T13:02:37.854Z,39.46
2022-08-08T13:05:26.520Z,38.27
2022-08-08T13:08:17.218Z,38.85
2022-08-08T13:10:55.407Z,38.14
2022-08-08T13:13:35.080Z,39.21
2022-08-08T13:16:21.417Z,37.93
2022-08-08T13:18:57.254Z,39.88
2022-08-08T13:21:36.365Z,36.66
2022-08-08T13:24:18.608Z,36.73
2022-08-08T13:27:02.138Z,38.88
2022-08-08T13:29:40.857Z,36.18
2022-08-08T13:32:11.040Z,39.46
2022-08-08T13:34:41.413Z,36.61
2022-08-08T13:37:19.886Z,38.43
2022-08-08T13:40:03.382Z,37.75
2022-08-08T13:42:32.514Z,35.71
2022-08-08T13:45:04.529Z,36.38
2022-08-08T13:47:34.738Z,36.84
2022-08-08T13:50:38.418Z,38.20
2022-08-08T13:52:55.517Z,36.11
2022-08-08T13:55:29.288Z,39.35
2022-08-08T13:58:08.271Z,38.57
2022-08-08T14:00:46.011Z,38.98
2022-08-08T14:03:53.955Z,36.76
2022-08-08T14:06:32.484Z,35.84
2022-08-08T14:09:25.423Z,36.22
2022-08-08T14:11:51.408Z,37.21
2022-08-08T14:14:21.187Z,37.43
2022-08-08T14:16:57.234Z,36.20
2022-08-08T14:19:57.816Z,37.21
2022-08-08T14:22:28.866Z,35.59
2022-08-08T14:25:00.856Z,37.28
2022-08-08T14:27:33.412Z,37.54
2022-08-08T14:30:17.885Z,35.21
2022-08-08T14:32:53.104Z,36.95
2022-08-08T14:35:35.058Z,39.02
2022-08-08T14:38:33.595Z,35.55
2022-08-08T14:40:59.028Z,38.22
2022-08-08T14:44:01.787Z,36.64
2022-08-08T14:46:30.851Z,35.79
2022-08-08T14:49:09.461Z,35.49
2022-08-08T14:51:53.541Z,35.73
2022-08-08T14:54:29.254Z,35.96
2022-08-08T14:56:58.512Z,36.10
2022-08-08T14:59:51.047Z,35.44
2022-08-08T15:02:25.754Z,35.31
2022-08-08T15:05:10.596Z,35.51
2022-08-08T15:07:42.509Z,36.31
2022-08-08T15:10:22.898Z,35.61
2022-08-08T15:12:57.303Z,36.15
2022-08-08T15:16:01.364Z,37.74
2022-08-08T15:18:13.961Z,35.73
2022-08-08T15:20:48.791Z,35.82
2022-08-08T15:23:18.467Z,35.65
2022-08-08T15:25:46.746Z,36.91
2022-08-08T15:28:33.700Z,36.24
2022-08-08T15:31:02.999Z,36.44
2022-08-08T15:33:35.475Z,35.75
2022-08-08T15:36:07.923Z,37.25
2022-08-08T15:38:40.565Z,38.91
2022-08-08T15:41:17.969Z,36.48
2022-08-08T15:44:01.077Z,37.18
2022-08-08T15:46:34.868Z,37.48
2022-08-08T15:49:05.019Z,36.66
2022-08-08T15:51:34.272Z,37.06
2022-08-08T15:54:05.152Z,38.08
2022-08-08T15:56:33.775Z,37.01
2022-08-08T15:59:02.357Z,39.19
2022-08-08T16:01:40.429Z,38.66
2022-08-08T16:04:19.046Z,37.13
2022-08-08T16:06:51.003Z,38.93
2022-08-08T16:13:04.327Z,40.52
2022-08-08T16:13:11.561Z,38.80
2022-08-08T16:14:57.449Z,39.10
2022-08-08T16:17:57.597Z,38.24
2022-08-08T16:20:14.967Z,39.62
2022-08-08T16:22:49.470Z,41.39
2022-08-08T16:25:22.081Z,40.65
2022-08-08T16:27:57.829Z,39.63
2022-08-08T16:30:36.415Z,39.82
2022-08-08T16:33:05.759Z,40.63
2022-08-08T16:35:34.517Z,41.14
2022-08-08T16:38:02.772Z,39.23
2022-08-08T16:40:33.251Z,38.68
2022-08-08T16:43:01.807Z,39.32
2022-08-08T16:46:37.653Z,39.53
2022-08-08T16:48:19.219Z,40.59
2022-08-08T16:50:47.564Z,42.26
2022-08-08T16:55:01.842Z,39.87
2022-08-08T16:56:14.170Z,39.76
2022-08-08T16:58:43.453Z,39.47
2022-08-08T17:01:15.641Z,42.04
2022-08-08T17:04:00.638Z,41.43
2022-08-08T17:06:39.630Z,42.13
2022-08-08T17:09:15.557Z,40.12
2022-08-08T17:11:48.485Z,40.14
2022-08-08T17:14:33.027Z,39.43
2022-08-08T17:17:04.507Z,40.34
2022-08-08T17:19:41.125Z,39.16
2022-08-08T17:22:10.713Z,40.12
2022-08-08T17:24:40.898Z,42.89
2022-08-08T17:27:10.710Z,41.49
2022-08-08T17:29:43.930Z,41.50
2022-08-08T17:32:28.816Z,42.18
2022-08-08T17:35:54.191Z,42.70
2022-08-08T17:37:53.207Z,42.49
2022-08-08T17:40:22.227Z,43.24
2022-08-08T17:42:53.098Z,44.24
2022-08-08T17:45:23.195Z,42.98
2022-08-08T17:47:54.263Z,44.49
2022-08-08T17:50:23.622Z,44.49
2022-08-08T17:52:52.726Z,44.62
2022-08-08T17:56:07.153Z,45.48
2022-08-08T17:58:12.349Z,44.61
2022-08-08T18:00:41.680Z,45.04
2022-08-08T18:03:13.348Z,43.51
2022-08-08T18:05:43.989Z,43.73
2022-08-08T18:08:24.549Z,47.04
2022-08-08T18:11:07.045Z,48.00
2022-08-08T18:13:41.852Z,46.14
2022-08-08T18:16:12.708Z,48.87
2022-08-08T18:18:52.602Z,44.86
2022-08-08T18:21:34.612Z,43.52
2022-08-08T18:24:04.884Z,42.68
2022-08-08T18:26:34.440Z,43.21
2022-08-08T18:29:05.902Z,45.00
2022-08-08T18:31:34.347Z,44.34
2022-08-08T18:34:11.963Z,43.69
2022-08-08T18:36:55.690Z,43.70
2022-08-08T18:39:27.536Z,42.67
2022-08-08T18:42:01.129Z,43.67
2022-08-08T18:44:36.054Z,43.47
2022-08-08T18:47:05.260Z,44.90
2022-08-08T18:49:49.136Z,45.69
2022-08-08T18:52:23.404Z,45.00
2022-08-08T18:55:00.436Z,43.65
2022-08-08T18:57:41.297Z,44.27
2022-08-08T19:00:20.944Z,44.86
2022-08-08T19:02:55.342Z,43.17
2022-08-08T19:05:34.285Z,43.07
2022-08-08T19:08:25.366Z,44.89
2022-08-08T19:10:59.026Z,45.29
2022-08-08T19:13:53.279Z,44.91
2022-08-08T19:16:19.946Z,45.40
2022-08-08T19:19:00.129Z,45.53
2022-08-08T19:21:33.848Z,44.19
2022-08-08T19:24:49.036Z,44.81
2022-08-08T19:27:07.699Z,44.91
2022-08-08T19:29:40.783Z,43.58
2022-08-08T19:32:21.919Z,44.43
2022-08-08T19:34:51.578Z,45.38
2022-08-08T19:37:42.725Z,45.12
2022-08-08T19:40:14.617Z,45.19
2022-08-08T19:42:45.478Z,45.91
2022-08-08T19:45:14.411Z,46.10
2022-08-08T19:48:04.485Z,45.34
2022-08-08T19:50:34.857Z,45.80
2022-08-08T19:53:03.216Z,45.51
2022-08-08T19:55:51.617Z,46.21
2022-08-08T19:58:20.167Z,45.32
2022-08-08T20:00:53.110Z,46.34
2022-08-08T20:04:00.393Z,46.90
2022-08-08T20:06:15.601Z,46.67
2022-08-08T20:08:48.125Z,46.71
2022-08-08T20:11:16.993Z,46.59
2022-08-08T20:14:31.329Z,47.35
2022-08-08T20:16:38.943Z,47.97
2022-08-08T20:19:10.950Z,47.33
2022-08-08T20:21:39.713Z,46.00
2022-08-08T20:24:09.321Z,44.90
2022-08-08T20:26:41.636Z,46.57
2022-08-08T20:29:16.119Z,47.14
2022-08-08T20:32:02.547Z,47.32
2022-08-08T20:34:35.149Z,48.43
2022-08-08T20:37:07.231Z,47.12
2022-08-08T20:39:41.782Z,47.34
2022-08-08T20:42:23.699Z,49.28
2022-08-08T20:44:58.911Z,50.55
2022-08-08T20:47:28.754Z,50.77
2022-08-08T20:50:09.835Z,50.75
2022-08-08T20:52:39.328Z,51.37
2022-08-08T20:55:22.725Z,51.34
2022-08-08T20:57:54.447Z,53.33
2022-08-08T21:00:28.068Z,51.62
2022-08-08T21:02:56.459Z,53.44
2022-08-08T21:05:31.885Z,54.19
2022-08-08T21:08:34.410Z,53.22
2022-08-08T21:10:50.096Z,54.04
2022-08-08T21:13:18.375Z,55.53
2022-08-08T21:16:05.937Z,54.72
2022-08-08T21:18:35.155Z,55.21
2022-08-08T21:21:19.559Z,54.44
2022-08-08T21:24:03.168Z,54.13
2022-08-08T21:26:34.394Z,54.08
2022-08-08T21:29:02.812Z,52.06
2022-08-08T21:31:58.347Z,55.37
2022-08-08T21:34:19.806Z,55.69
2022-08-08T21:36:51.725Z,56.29
2022-08-08T21:39:22.964Z,54.62
2022-08-08T21:42:10.199Z,55.51
2022-08-08T21:44:39.114Z,57.24
2022-08-08T21:48:06.448Z,55.24
2022-08-08T21:50:15.676Z,56.27
2022-08-08T21:54:36.543Z,55.33
2022-08-08T21:56:24.465Z,56.36
2022-08-08T21:58:21.852Z,53.50
2022-08-08T22:01:04.061Z,54.34
2022-08-08T22:03:32.875Z,53.65
2022-08-08T22:06:02.554Z,54.42
2022-08-08T22:08:41.803Z,55.27
2022-08-08T22:11:45.116Z,53.39
2022-08-08T22:13:58.875Z,54.92
2022-08-08T22:16:28.454Z,54.87
2022-08-08T22:18:56.875Z,56.42
2022-08-08T22:21:25.260Z,55.62
2022-08-08T22:24:04.795Z,55.98
2022-08-08T22:26:33.165Z,54.58
2022-08-08T22:29:59.353Z,54.67
2022-08-08T22:32:09.755Z,54.56
2022-08-08T22:34:39.728Z,55.69
2022-08-08T22:37:15.132Z,55.07
2022-08-08T22:40:00.217Z,55.46
2022-08-08T22:42:32.139Z,56.53
2022-08-08T22:45:03.707Z,55.10
2022-08-08T22:47:34.172Z,54.86
2022-08-08T22:50:25.101Z,55.88
2022-08-08T22:53:01.556Z,55.67
2022-08-08T22:55:58.517Z,55.01
2022-08-08T22:58:32.839Z,55.77
2022-08-08T23:01:02.197Z,56.13
2022-08-08T23:03:54.444Z,57.31
2022-08-08T23:06:24.482Z,56.45
2022-08-08T23:08:55.020Z,55.99
2022-08-08T23:11:31.420Z,56.99
2022-08-08T23:14:16.805Z,57.43
2022-08-08T23:16:48.202Z,58.13
2022-08-08T23:19:26.860Z,58.31
2022-08-08T23:21:55.160Z,58.30
2022-08-08T23:24:23.558Z,58.36
2022-08-08T23:26:56.132Z,57.41
2022-08-08T23:29:25.541Z,58.85
2022-08-08T23:31:54.069Z,58.85
2022-08-08T23:34:23.526Z,60.27
2022-08-08T23:36:57.905Z,59.76
2022-08-08T23:39:32.343Z,61.70
2022-08-08T23:42:11.355Z,61.05
2022-08-08T23:44:39.658Z,59.68
2022-08-08T23:49:07.771Z,62.70
2022-08-08T23:50:03.069Z,60.90
2022-08-08T23:52:34.298Z,61.38
2022-08-08T23:55:14.479Z,62.64
2022-08-08T23:57:53.024Z,62.27
